sensor_id;sensor_type;location;lat;lon;timestamp;pressure;altitude;pressure_sealevel;temperature;humidity
62248;BME280;48237;50.140;8.486;2023-04-05T00:00:47;100336.88;;;3.01;52.70
62248;BME280;48237;50.140;8.486;2023-04-05T00:03:15;100337.97;;;3.05;52.79
62248;BME280;48237;50.140;8.486;2023-04-05T00:05:42;100340.71;;;2.00;55.02
62248;BME280;48237;50.140;8.486;2023-04-05T00:08:10;100339.42;;;2.60;54.92
62248;BME280;48237;50.140;8.486;2023-04-05T00:10:37;100339.80;;;2.93;54.32
62248;BME280;48237;50.140;8.486;2023-04-05T00:13:04;100335.21;;;2.62;54.73
62248;BME280;48237;50.140;8.486;2023-04-05T00:15:32;100338.43;;;2.16;55.44
62248;BME280;48237;50.140;8.486;2023-04-05T00:17:59;100336.93;;;1.77;55.54
62248;BME280;48237;50.140;8.486;2023-04-05T00:20:26;100335.61;;;1.33;58.51
62248;BME280;48237;50.140;8.486;2023-04-05T00:22:53;100335.64;;;1.16;58.88
62248;BME280;48237;50.140;8.486;2023-04-05T00:25:21;100337.53;;;0.75;61.24
62248;BME280;48237;50.140;8.486;2023-04-05T00:27:49;100337.72;;;0.93;61.32
62248;BME280;48237;50.140;8.486;2023-04-05T00:30:16;100341.77;;;1.04;60.02
62248;BME280;48237;50.140;8.486;2023-04-05T00:32:43;100338.09;;;1.42;58.06
62248;BME280;48237;50.140;8.486;2023-04-05T00:35:10;100338.16;;;1.03;60.46
62248;BME280;48237;50.140;8.486;2023-04-05T00:37:37;100337.29;;;2.16;57.78
62248;BME280;48237;50.140;8.486;2023-04-05T00:40:06;100334.71;;;1.86;57.68
62248;BME280;48237;50.140;8.486;2023-04-05T00:42:33;100336.81;;;0.85;60.96
62248;BME280;48237;50.140;8.486;2023-04-05T00:45:00;100331.18;;;2.30;56.19
62248;BME280;48237;50.140;8.486;2023-04-05T00:47:27;100331.57;;;1.57;58.19
62248;BME280;48237;50.140;8.486;2023-04-05T00:49:55;100328.10;;;2.17;58.28
62248;BME280;48237;50.140;8.486;2023-04-05T00:52:22;100324.99;;;1.27;59.01
62248;BME280;48237;50.140;8.486;2023-04-05T00:54:50;100320.76;;;1.65;57.74
62248;BME280;48237;50.140;8.486;2023-04-05T00:57:18;100319.42;;;1.56;57.80
62248;BME280;48237;50.140;8.486;2023-04-05T00:59:45;100319.11;;;2.22;56.85
62248;BME280;48237;50.140;8.486;2023-04-05T01:02:15;100318.64;;;2.41;56.48
62248;BME280;48237;50.140;8.486;2023-04-05T01:04:47;100315.26;;;2.89;54.84
62248;BME280;48237;50.140;8.486;2023-04-05T01:07:24;100306.36;;;3.22;54.54
62248;BME280;48237;50.140;8.486;2023-04-05T01:09:55;100303.62;;;3.18;51.79
62248;BME280;48237;50.140;8.486;2023-04-05T01:12:26;100303.26;;;3.07;54.79
62248;BME280;48237;50.140;8.486;2023-04-05T01:14:54;100303.33;;;3.06;54.64
62248;BME280;48237;50.140;8.486;2023-04-05T01:17:23;100301.79;;;3.13;56.53
62248;BME280;48237;50.140;8.486;2023-04-05T01:19:52;100297.84;;;3.94;55.52
62248;BME280;48237;50.140;8.486;2023-04-05T01:22:35;100296.54;;;3.85;55.41
62248;BME280;48237;50.140;8.486;2023-04-05T01:25:44;100291.52;;;3.75;53.30
62248;BME280;48237;50.140;8.486;2023-04-05T01:28:34;100289.48;;;3.97;52.53
62248;BME280;48237;50.140;8.486;2023-04-05T01:31:09;100288.21;;;2.89;53.70
62248;BME280;48237;50.140;8.486;2023-04-05T01:33:47;100287.97;;;3.78;54.47
62248;BME280;48237;50.140;8.486;2023-04-05T01:36:19;100287.68;;;3.09;57.24
62248;BME280;48237;50.140;8.486;2023-04-05T01:38:51;100286.87;;;2.85;58.47
62248;BME280;48237;50.140;8.486;2023-04-05T01:41:20;100285.49;;;3.17;56.72
62248;BME280;48237;50.140;8.486;2023-04-05T01:43:48;100285.39;;;3.03;56.04
62248;BME280;48237;50.140;8.486;2023-04-05T01:46:15;100281.91;;;2.86;54.98
62248;BME280;48237;50.140;8.486;2023-04-05T01:48:42;100282.76;;;3.11;53.09
62248;BME280;48237;50.140;8.486;2023-04-05T01:51:09;100284.34;;;2.82;55.15
62248;BME280;48237;50.140;8.486;2023-04-05T01:53:36;100280.69;;;2.08;56.70
62248;BME280;48237;50.140;8.486;2023-04-05T01:56:04;100279.58;;;2.51;55.40
62248;BME280;48237;50.140;8.486;2023-04-05T01:58:31;100280.75;;;1.13;57.78
62248;BME280;48237;50.140;8.486;2023-04-05T02:00:58;100282.47;;;0.66;59.20
62248;BME280;48237;50.140;8.486;2023-04-05T02:03:25;100278.63;;;1.01;60.11
62248;BME280;48237;50.140;8.486;2023-04-05T02:05:52;100271.73;;;1.08;59.06
62248;BME280;48237;50.140;8.486;2023-04-05T02:08:19;100270.56;;;1.97;57.76
62248;BME280;48237;50.140;8.486;2023-04-05T02:10:46;100275.87;;;2.68;57.07
62248;BME280;48237;50.140;8.486;2023-04-05T02:13:13;100276.71;;;2.50;57.21
62248;BME280;48237;50.140;8.486;2023-04-05T02:15:46;100277.40;;;1.41;58.57
62248;BME280;48237;50.140;8.486;2023-04-05T02:18:14;100284.45;;;0.84;60.69
62248;BME280;48237;50.140;8.486;2023-04-05T02:20:41;100281.14;;;0.97;60.70
62248;BME280;48237;50.140;8.486;2023-04-05T02:23:08;100279.58;;;0.83;61.34
62248;BME280;48237;50.140;8.486;2023-04-05T02:25:35;100277.47;;;0.90;60.91
62248;BME280;48237;50.140;8.486;2023-04-05T02:28:03;100275.35;;;1.41;60.42
62248;BME280;48237;50.140;8.486;2023-04-05T02:30:30;100277.86;;;1.69;59.94
62248;BME280;48237;50.140;8.486;2023-04-05T02:32:57;100277.96;;;2.31;59.29
62248;BME280;48237;50.140;8.486;2023-04-05T02:35:25;100279.64;;;2.22;57.30
62248;BME280;48237;50.140;8.486;2023-04-05T02:37:52;100275.55;;;1.49;59.07
62248;BME280;48237;50.140;8.486;2023-04-05T02:40:19;100277.38;;;1.84;59.60
62248;BME280;48237;50.140;8.486;2023-04-05T02:42:46;100278.51;;;0.98;61.63
62248;BME280;48237;50.140;8.486;2023-04-05T02:45:13;100277.64;;;0.90;61.04
62248;BME280;48237;50.140;8.486;2023-04-05T02:47:40;100272.55;;;1.45;62.09
62248;BME280;48237;50.140;8.486;2023-04-05T02:50:08;100268.31;;;1.44;59.68
62248;BME280;48237;50.140;8.486;2023-04-05T02:52:35;100267.96;;;0.90;60.25
62248;BME280;48237;50.140;8.486;2023-04-05T02:55:02;100265.01;;;1.86;58.20
62248;BME280;48237;50.140;8.486;2023-04-05T02:57:29;100264.50;;;1.47;57.91
62248;BME280;48237;50.140;8.486;2023-04-05T02:59:57;100263.66;;;2.13;57.23
62248;BME280;48237;50.140;8.486;2023-04-05T03:02:24;100264.08;;;1.24;57.61
62248;BME280;48237;50.140;8.486;2023-04-05T03:04:51;100261.36;;;1.76;57.12
62248;BME280;48237;50.140;8.486;2023-04-05T03:07:18;100254.41;;;2.25;56.59
62248;BME280;48237;50.140;8.486;2023-04-05T03:09:46;100250.23;;;1.57;57.47
62248;BME280;48237;50.140;8.486;2023-04-05T03:12:13;100251.87;;;0.99;59.63
62248;BME280;48237;50.140;8.486;2023-04-05T03:14:40;100251.87;;;1.54;58.31
62248;BME280;48237;50.140;8.486;2023-04-05T03:17:07;100252.76;;;1.74;57.53
62248;BME280;48237;50.140;8.486;2023-04-05T03:19:35;100254.11;;;1.46;58.93
62248;BME280;48237;50.140;8.486;2023-04-05T03:22:02;100252.15;;;1.66;57.42
62248;BME280;48237;50.140;8.486;2023-04-05T03:24:29;100253.83;;;1.86;56.59
62248;BME280;48237;50.140;8.486;2023-04-05T03:27:00;100254.68;;;1.55;57.76
62248;BME280;48237;50.140;8.486;2023-04-05T03:29:27;100257.30;;;1.68;58.89
62248;BME280;48237;50.140;8.486;2023-04-05T03:31:56;100256.68;;;2.16;57.18
62248;BME280;48237;50.140;8.486;2023-04-05T03:34:23;100259.96;;;1.83;57.39
62248;BME280;48237;50.140;8.486;2023-04-05T03:36:50;100258.92;;;1.36;59.29
62248;BME280;48237;50.140;8.486;2023-04-05T03:39:17;100255.65;;;2.05;57.61
62248;BME280;48237;50.140;8.486;2023-04-05T03:41:45;100251.04;;;1.95;57.53
62248;BME280;48237;50.140;8.486;2023-04-05T03:44:11;100249.54;;;0.77;58.31
62248;BME280;48237;50.140;8.486;2023-04-05T03:46:38;100244.96;;;1.51;58.78
62248;BME280;48237;50.140;8.486;2023-04-05T03:49:06;100246.24;;;1.77;57.89
62248;BME280;48237;50.140;8.486;2023-04-05T03:51:33;100240.74;;;1.25;59.56
62248;BME280;48237;50.140;8.486;2023-04-05T03:54:00;100239.13;;;1.18;59.59
62248;BME280;48237;50.140;8.486;2023-04-05T03:56:28;100234.52;;;1.33;58.46
62248;BME280;48237;50.140;8.486;2023-04-05T03:58:55;100232.59;;;2.12;58.37
62248;BME280;48237;50.140;8.486;2023-04-05T04:01:22;100234.66;;;1.54;58.95
62248;BME280;48237;50.140;8.486;2023-04-05T04:03:49;100236.15;;;1.83;58.04
62248;BME280;48237;50.140;8.486;2023-04-05T04:06:17;100237.71;;;1.59;58.57
62248;BME280;48237;50.140;8.486;2023-04-05T04:08:44;100237.69;;;1.57;59.83
62248;BME280;48237;50.140;8.486;2023-04-05T04:11:11;100239.65;;;1.40;59.15
62248;BME280;48237;50.140;8.486;2023-04-05T04:13:39;100239.06;;;1.76;58.27
62248;BME280;48237;50.140;8.486;2023-04-05T04:16:06;100240.10;;;2.02;57.61
62248;BME280;48237;50.140;8.486;2023-04-05T04:18:33;100240.00;;;1.73;57.48
62248;BME280;48237;50.140;8.486;2023-04-05T04:21:01;100241.84;;;1.63;57.97
62248;BME280;48237;50.140;8.486;2023-04-05T04:23:28;100240.99;;;1.36;58.16
62248;BME280;48237;50.140;8.486;2023-04-05T04:25:55;100244.50;;;1.14;58.17
62248;BME280;48237;50.140;8.486;2023-04-05T04:28:22;100240.62;;;1.03;61.13
62248;BME280;48237;50.140;8.486;2023-04-05T04:30:50;100240.89;;;1.24;58.95
62248;BME280;48237;50.140;8.486;2023-04-05T04:33:16;100241.85;;;1.42;59.23
62248;BME280;48237;50.140;8.486;2023-04-05T04:35:44;100242.91;;;1.64;58.64
62248;BME280;48237;50.140;8.486;2023-04-05T04:38:11;100241.49;;;0.86;60.52
62248;BME280;48237;50.140;8.486;2023-04-05T04:40:38;100248.98;;;0.30;62.19
62248;BME280;48237;50.140;8.486;2023-04-05T04:43:06;100242.74;;;0.20;62.34
62248;BME280;48237;50.140;8.486;2023-04-05T04:45:34;100244.73;;;-0.12;62.90
62248;BME280;48237;50.140;8.486;2023-04-05T04:48:01;100240.60;;;-0.27;63.19
62248;BME280;48237;50.140;8.486;2023-04-05T04:50:29;100239.04;;;-0.95;64.68
62248;BME280;48237;50.140;8.486;2023-04-05T04:52:57;100240.03;;;-0.72;65.12
62248;BME280;48237;50.140;8.486;2023-04-05T04:55:25;100240.38;;;-0.46;65.24
62248;BME280;48237;50.140;8.486;2023-04-05T04:57:53;100241.38;;;-0.47;65.22
62248;BME280;48237;50.140;8.486;2023-04-05T05:00:21;100239.44;;;-0.85;66.13
62248;BME280;48237;50.140;8.486;2023-04-05T05:02:49;100237.11;;;0.58;62.75
62248;BME280;48237;50.140;8.486;2023-04-05T05:05:17;100241.02;;;-0.07;63.40
62248;BME280;48237;50.140;8.486;2023-04-05T05:07:44;100239.00;;;0.42;61.96
62248;BME280;48237;50.140;8.486;2023-04-05T05:10:12;100243.22;;;-0.07;62.54
62248;BME280;48237;50.140;8.486;2023-04-05T05:12:39;100239.34;;;0.90;60.80
62248;BME280;48237;50.140;8.486;2023-04-05T05:15:07;100239.42;;;1.17;60.15
62248;BME280;48237;50.140;8.486;2023-04-05T05:17:35;100238.57;;;1.07;59.08
62248;BME280;48237;50.140;8.486;2023-04-05T05:20:02;100236.42;;;1.44;60.00
62248;BME280;48237;50.140;8.486;2023-04-05T05:22:29;100237.09;;;1.73;59.16
62248;BME280;48237;50.140;8.486;2023-04-05T05:24:56;100238.94;;;1.76;58.65
62248;BME280;48237;50.140;8.486;2023-04-05T05:27:23;100237.97;;;1.90;57.50
62248;BME280;48237;50.140;8.486;2023-04-05T05:29:50;100239.32;;;1.81;58.10
62248;BME280;48237;50.140;8.486;2023-04-05T05:32:17;100238.15;;;2.12;59.24
62248;BME280;48237;50.140;8.486;2023-04-05T05:34:45;100240.73;;;2.49;58.26
62248;BME280;48237;50.140;8.486;2023-04-05T05:37:12;100243.32;;;2.16;57.42
62248;BME280;48237;50.140;8.486;2023-04-05T05:39:39;100244.38;;;2.25;59.79
62248;BME280;48237;50.140;8.486;2023-04-05T05:42:07;100243.31;;;2.53;59.27
62248;BME280;48237;50.140;8.486;2023-04-05T05:44:34;100245.58;;;2.47;59.37
62248;BME280;48237;50.140;8.486;2023-04-05T05:47:01;100242.95;;;2.30;59.69
62248;BME280;48237;50.140;8.486;2023-04-05T05:49:28;100241.15;;;2.34;59.19
62248;BME280;48237;50.140;8.486;2023-04-05T05:51:55;100238.46;;;2.85;58.90
62248;BME280;48237;50.140;8.486;2023-04-05T05:54:23;100239.63;;;3.17;58.91
62248;BME280;48237;50.140;8.486;2023-04-05T05:56:51;100245.11;;;1.96;60.37
62248;BME280;48237;50.140;8.486;2023-04-05T05:59:18;100242.46;;;2.75;58.76
62248;BME280;48237;50.140;8.486;2023-04-05T06:01:45;100243.02;;;3.19;57.87
62248;BME280;48237;50.140;8.486;2023-04-05T06:04:13;100243.99;;;3.33;57.95
62248;BME280;48237;50.140;8.486;2023-04-05T06:06:40;100253.52;;;1.88;60.58
62248;BME280;48237;50.140;8.486;2023-04-05T06:09:07;100251.31;;;2.51;59.74
62248;BME280;48237;50.140;8.486;2023-04-05T06:11:34;100248.59;;;2.99;58.12
62248;BME280;48237;50.140;8.486;2023-04-05T06:14:02;100247.33;;;3.33;56.38
62248;BME280;48237;50.140;8.486;2023-04-05T06:16:29;100253.22;;;0.73;58.10
62248;BME280;48237;50.140;8.486;2023-04-05T06:18:56;100254.38;;;1.05;58.87
62248;BME280;48237;50.140;8.486;2023-04-05T06:21:24;100253.92;;;1.09;62.35
62248;BME280;48237;50.140;8.486;2023-04-05T06:23:51;100255.73;;;1.08;61.08
62248;BME280;48237;50.140;8.486;2023-04-05T06:26:19;100256.49;;;0.84;64.16
62248;BME280;48237;50.140;8.486;2023-04-05T06:28:46;100258.01;;;0.48;61.37
62248;BME280;48237;50.140;8.486;2023-04-05T06:31:14;100258.99;;;-0.15;64.92
62248;BME280;48237;50.140;8.486;2023-04-05T06:33:42;100254.17;;;0.72;63.71
62248;BME280;48237;50.140;8.486;2023-04-05T06:36:10;100252.22;;;1.10;58.89
62248;BME280;48237;50.140;8.486;2023-04-05T06:38:36;100260.80;;;-0.05;60.55
62248;BME280;48237;50.140;8.486;2023-04-05T06:41:04;100254.93;;;0.19;62.19
62248;BME280;48237;50.140;8.486;2023-04-05T06:43:31;100250.44;;;1.15;60.84
62248;BME280;48237;50.140;8.486;2023-04-05T06:45:59;100256.90;;;0.05;60.57
62248;BME280;48237;50.140;8.486;2023-04-05T06:48:26;100258.26;;;-0.49;60.86
62248;BME280;48237;50.140;8.486;2023-04-05T06:50:57;100260.12;;;-0.56;63.34
62248;BME280;48237;50.140;8.486;2023-04-05T06:53:25;100256.45;;;0.50;62.79
62248;BME280;48237;50.140;8.486;2023-04-05T06:55:52;100262.42;;;0.35;62.84
62248;BME280;48237;50.140;8.486;2023-04-05T06:58:19;100256.12;;;0.34;59.94
62248;BME280;48237;50.140;8.486;2023-04-05T07:00:46;100256.00;;;1.00;60.63
62248;BME280;48237;50.140;8.486;2023-04-05T07:03:14;100262.63;;;-0.71;63.16
62248;BME280;48237;50.140;8.486;2023-04-05T07:05:49;100265.91;;;-0.18;59.91
62248;BME280;48237;50.140;8.486;2023-04-05T07:08:16;100262.54;;;-0.29;60.94
62248;BME280;48237;50.140;8.486;2023-04-05T07:10:44;100257.87;;;-0.29;60.92
62248;BME280;48237;50.140;8.486;2023-04-05T07:13:11;100254.75;;;-0.25;59.49
62248;BME280;48237;50.140;8.486;2023-04-05T07:15:38;100251.91;;;0.15;59.97
62248;BME280;48237;50.140;8.486;2023-04-05T07:18:05;100242.91;;;0.93;57.56
62248;BME280;48237;50.140;8.486;2023-04-05T07:20:32;100242.92;;;0.42;57.72
62248;BME280;48237;50.140;8.486;2023-04-05T07:22:59;100240.33;;;1.19;55.56
62248;BME280;48237;50.140;8.486;2023-04-05T07:25:26;100244.14;;;0.06;59.06
62248;BME280;48237;50.140;8.486;2023-04-05T07:27:53;100238.71;;;0.54;57.66
62248;BME280;48237;50.140;8.486;2023-04-05T07:30:19;100238.64;;;0.45;57.96
62248;BME280;48237;50.140;8.486;2023-04-05T07:32:47;100243.87;;;0.81;58.96
62248;BME280;48237;50.140;8.486;2023-04-05T07:35:14;100243.05;;;1.45;59.47
62248;BME280;48237;50.140;8.486;2023-04-05T07:37:41;100237.22;;;1.63;56.56
62248;BME280;48237;50.140;8.486;2023-04-05T07:40:09;100239.43;;;1.21;56.69
62248;BME280;48237;50.140;8.486;2023-04-05T07:42:36;100239.35;;;1.61;56.01
62248;BME280;48237;50.140;8.486;2023-04-05T07:45:04;100241.94;;;1.85;55.27
62248;BME280;48237;50.140;8.486;2023-04-05T07:47:32;100236.51;;;1.63;53.79
62248;BME280;48237;50.140;8.486;2023-04-05T07:49:59;100235.95;;;2.59;52.33
62248;BME280;48237;50.140;8.486;2023-04-05T07:52:26;100230.66;;;3.09;51.19
62248;BME280;48237;50.140;8.486;2023-04-05T07:54:54;100225.18;;;4.07;48.21
62248;BME280;48237;50.140;8.486;2023-04-05T07:57:21;100228.59;;;3.22;49.71
62248;BME280;48237;50.140;8.486;2023-04-05T07:59:49;100234.23;;;2.63;52.85
62248;BME280;48237;50.140;8.486;2023-04-05T08:02:15;100239.70;;;1.48;56.76
62248;BME280;48237;50.140;8.486;2023-04-05T08:04:43;100239.98;;;1.83;55.04
62248;BME280;48237;50.140;8.486;2023-04-05T08:07:10;100239.73;;;1.84;55.08
62248;BME280;48237;50.140;8.486;2023-04-05T08:09:37;100242.19;;;1.33;55.75
62248;BME280;48237;50.140;8.486;2023-04-05T08:12:05;100240.47;;;1.97;54.30
62248;BME280;48237;50.140;8.486;2023-04-05T08:14:33;100236.68;;;2.41;54.18
62248;BME280;48237;50.140;8.486;2023-04-05T08:16:59;100239.90;;;1.53;53.87
62248;BME280;48237;50.140;8.486;2023-04-05T08:19:27;100236.43;;;1.35;53.20
62248;BME280;48237;50.140;8.486;2023-04-05T08:21:54;100229.12;;;2.73;51.87
62248;BME280;48237;50.140;8.486;2023-04-05T08:24:21;100230.08;;;1.48;50.71
62248;BME280;48237;50.140;8.486;2023-04-05T08:26:48;100232.19;;;0.94;52.35
62248;BME280;48237;50.140;8.486;2023-04-05T08:29:15;100223.88;;;2.27;49.33
62248;BME280;48237;50.140;8.486;2023-04-05T08:31:42;100219.29;;;2.19;51.32
62248;BME280;48237;50.140;8.486;2023-04-05T08:34:09;100222.08;;;1.87;53.31
62248;BME280;48237;50.140;8.486;2023-04-05T08:36:37;100221.34;;;1.40;54.43
62248;BME280;48237;50.140;8.486;2023-04-05T08:39:03;100224.21;;;2.14;52.32
62248;BME280;48237;50.140;8.486;2023-04-05T08:41:34;100222.85;;;2.11;49.74
62248;BME280;48237;50.140;8.486;2023-04-05T08:44:02;100223.00;;;2.13;49.94
62248;BME280;48237;50.140;8.486;2023-04-05T08:46:31;100224.65;;;1.57;50.12
62248;BME280;48237;50.140;8.486;2023-04-05T08:49:03;100224.70;;;1.51;50.64
62248;BME280;48237;50.140;8.486;2023-04-05T08:51:30;100223.33;;;2.11;51.56
62248;BME280;48237;50.140;8.486;2023-04-05T08:53:58;100223.37;;;2.67;49.63
62248;BME280;48237;50.140;8.486;2023-04-05T08:56:29;100219.69;;;3.03;49.40
62248;BME280;48237;50.140;8.486;2023-04-05T08:59:01;100225.68;;;1.84;50.47
62248;BME280;48237;50.140;8.486;2023-04-05T09:01:30;100226.13;;;1.67;51.50
62248;BME280;48237;50.140;8.486;2023-04-05T09:04:00;100215.93;;;1.61;51.53
62248;BME280;48237;50.140;8.486;2023-04-05T09:06:28;100217.98;;;1.41;51.55
62248;BME280;48237;50.140;8.486;2023-04-05T09:08:56;100207.65;;;2.30;48.51
62248;BME280;48237;50.140;8.486;2023-04-05T09:11:24;100208.57;;;2.07;50.07
62248;BME280;48237;50.140;8.486;2023-04-05T09:13:52;100205.75;;;2.35;50.98
62248;BME280;48237;50.140;8.486;2023-04-05T09:16:19;100206.01;;;2.58;49.75
62248;BME280;48237;50.140;8.486;2023-04-05T09:18:46;100203.82;;;2.56;49.72
62248;BME280;48237;50.140;8.486;2023-04-05T09:21:14;100205.60;;;2.21;49.74
62248;BME280;48237;50.140;8.486;2023-04-05T09:23:50;100205.59;;;2.45;50.24
62248;BME280;48237;50.140;8.486;2023-04-05T09:26:18;100203.76;;;2.54;50.22
62248;BME280;48237;50.140;8.486;2023-04-05T09:28:45;100201.06;;;3.52;47.32
62248;BME280;48237;50.140;8.486;2023-04-05T09:31:29;100198.40;;;2.97;47.77
62248;BME280;48237;50.140;8.486;2023-04-05T09:33:57;100205.50;;;2.23;49.52
62248;BME280;48237;50.140;8.486;2023-04-05T09:36:24;100199.10;;;2.46;50.33
62248;BME280;48237;50.140;8.486;2023-04-05T09:38:51;100199.95;;;2.80;48.61
62248;BME280;48237;50.140;8.486;2023-04-05T09:41:18;100201.91;;;2.53;48.91
62248;BME280;48237;50.140;8.486;2023-04-05T09:43:46;100198.96;;;2.51;49.19
62248;BME280;48237;50.140;8.486;2023-04-05T09:46:29;100197.15;;;2.91;49.85
62248;BME280;48237;50.140;8.486;2023-04-05T09:48:56;100195.24;;;2.98;48.31
62248;BME280;48237;50.140;8.486;2023-04-05T09:51:31;100200.49;;;2.64;48.66
62248;BME280;48237;50.140;8.486;2023-04-05T09:54:00;100194.53;;;3.75;48.00
62248;BME280;48237;50.140;8.486;2023-04-05T09:56:29;100189.81;;;2.99;48.28
62248;BME280;48237;50.140;8.486;2023-04-05T09:58:59;100201.74;;;2.33;47.73
62248;BME280;48237;50.140;8.486;2023-04-05T10:01:27;100196.39;;;2.70;48.01
62248;BME280;48237;50.140;8.486;2023-04-05T10:03:56;100194.54;;;2.49;47.52
62248;BME280;48237;50.140;8.486;2023-04-05T10:06:28;100193.39;;;3.21;48.65
62248;BME280;48237;50.140;8.486;2023-04-05T10:09:00;100188.67;;;3.77;48.08
62248;BME280;48237;50.140;8.486;2023-04-05T10:11:28;100190.75;;;2.78;48.06
62248;BME280;48237;50.140;8.486;2023-04-05T10:13:56;100185.53;;;3.12;46.80
62248;BME280;48237;50.140;8.486;2023-04-05T10:16:27;100190.64;;;2.83;48.48
62248;BME280;48237;50.140;8.486;2023-04-05T10:18:56;100186.60;;;2.60;49.78
62248;BME280;48237;50.140;8.486;2023-04-05T10:21:29;100176.39;;;2.65;47.54
62248;BME280;48237;50.140;8.486;2023-04-05T10:24:03;100175.86;;;3.30;48.19
62248;BME280;48237;50.140;8.486;2023-04-05T10:26:39;100179.15;;;2.68;48.61
62248;BME280;48237;50.140;8.486;2023-04-05T10:29:11;100173.59;;;3.12;46.88
62248;BME280;48237;50.140;8.486;2023-04-05T10:31:50;100171.85;;;2.86;48.14
62248;BME280;48237;50.140;8.486;2023-04-05T10:34:26;100180.21;;;2.88;48.11
62248;BME280;48237;50.140;8.486;2023-04-05T10:36:58;100169.59;;;3.03;48.50
62248;BME280;48237;50.140;8.486;2023-04-05T10:39:27;100174.68;;;2.95;47.65
62248;BME280;48237;50.140;8.486;2023-04-05T10:41:59;100171.05;;;3.75;45.07
62248;BME280;48237;50.140;8.486;2023-04-05T10:44:29;100167.61;;;3.47;46.20
62248;BME280;48237;50.140;8.486;2023-04-05T10:46:57;100163.84;;;3.48;46.28
62248;BME280;48237;50.140;8.486;2023-04-05T10:49:31;100165.77;;;3.10;47.83
62248;BME280;48237;50.140;8.486;2023-04-05T10:51:58;100163.27;;;2.95;47.29
62248;BME280;48237;50.140;8.486;2023-04-05T10:54:27;100162.84;;;3.10;46.26
62248;BME280;48237;50.140;8.486;2023-04-05T10:56:55;100156.62;;;3.36;45.47
62248;BME280;48237;50.140;8.486;2023-04-05T10:59:24;100156.69;;;3.74;44.84
62248;BME280;48237;50.140;8.486;2023-04-05T11:01:52;100153.35;;;3.99;45.04
62248;BME280;48237;50.140;8.486;2023-04-05T11:04:20;100154.38;;;3.72;43.64
62248;BME280;48237;50.140;8.486;2023-04-05T11:06:47;100157.68;;;3.71;45.02
62248;BME280;48237;50.140;8.486;2023-04-05T11:09:36;100152.71;;;3.76;45.62
62248;BME280;48237;50.140;8.486;2023-04-05T11:12:04;100142.95;;;5.21;43.30
62248;BME280;48237;50.140;8.486;2023-04-05T11:14:35;100151.32;;;4.02;43.67
62248;BME280;48237;50.140;8.486;2023-04-05T11:17:03;100154.50;;;3.50;44.24
62248;BME280;48237;50.140;8.486;2023-04-05T11:20:02;100153.02;;;3.75;43.81
62248;BME280;48237;50.140;8.486;2023-04-05T11:22:30;100145.09;;;4.02;41.53
62248;BME280;48237;50.140;8.486;2023-04-05T11:25:00;100125.36;;;5.36;40.19
62248;BME280;48237;50.140;8.486;2023-04-05T11:27:29;100131.64;;;4.36;43.21
62248;BME280;48237;50.140;8.486;2023-04-05T11:29:58;100129.20;;;5.11;42.23
62248;BME280;48237;50.140;8.486;2023-04-05T11:32:38;100123.78;;;4.22;43.99
62248;BME280;48237;50.140;8.486;2023-04-05T11:35:07;100116.67;;;4.65;42.97
62248;BME280;48237;50.140;8.486;2023-04-05T11:37:54;100124.74;;;4.92;40.93
62248;BME280;48237;50.140;8.486;2023-04-05T11:40:29;100123.53;;;3.55;42.88
62248;BME280;48237;50.140;8.486;2023-04-05T11:43:00;100118.48;;;4.34;41.73
62248;BME280;48237;50.140;8.486;2023-04-05T11:45:29;100118.39;;;4.27;41.92
62248;BME280;48237;50.140;8.486;2023-04-05T11:47:56;100122.45;;;4.13;41.04
62248;BME280;48237;50.140;8.486;2023-04-05T11:50:23;100110.03;;;4.90;40.00
62248;BME280;48237;50.140;8.486;2023-04-05T11:53:08;100120.09;;;3.93;41.23
62248;BME280;48237;50.140;8.486;2023-04-05T11:55:36;100109.33;;;3.89;41.70
62248;BME280;48237;50.140;8.486;2023-04-05T11:58:10;100114.26;;;3.56;41.27
62248;BME280;48237;50.140;8.486;2023-04-05T12:00:37;100101.97;;;5.48;39.99
62248;BME280;48237;50.140;8.486;2023-04-05T12:03:04;100099.82;;;3.99;41.86
62248;BME280;48237;50.140;8.486;2023-04-05T12:05:44;100098.78;;;4.42;41.13
62248;BME280;48237;50.140;8.486;2023-04-05T12:08:11;100100.30;;;4.75;41.94
62248;BME280;48237;50.140;8.486;2023-04-05T12:10:38;100094.79;;;3.98;41.95
62248;BME280;48237;50.140;8.486;2023-04-05T12:13:05;100080.68;;;5.33;38.82
62248;BME280;48237;50.140;8.486;2023-04-05T12:15:36;100085.81;;;4.69;40.02
62248;BME280;48237;50.140;8.486;2023-04-05T12:18:04;100077.18;;;5.15;40.86
62248;BME280;48237;50.140;8.486;2023-04-05T12:20:31;100076.55;;;3.62;41.20
62248;BME280;48237;50.140;8.486;2023-04-05T12:22:59;100075.05;;;5.00;41.34
62248;BME280;48237;50.140;8.486;2023-04-05T12:25:26;100080.44;;;3.97;41.24
62248;BME280;48237;50.140;8.486;2023-04-05T12:27:53;100085.31;;;3.97;41.66
62248;BME280;48237;50.140;8.486;2023-04-05T12:30:22;100074.60;;;4.04;41.32
62248;BME280;48237;50.140;8.486;2023-04-05T12:32:51;100063.87;;;6.02;38.64
62248;BME280;48237;50.140;8.486;2023-04-05T12:35:20;100062.23;;;6.31;38.16
62248;BME280;48237;50.140;8.486;2023-04-05T12:37:49;100067.79;;;5.10;39.57
62248;BME280;48237;50.140;8.486;2023-04-05T12:40:20;100061.87;;;4.73;39.59
62248;BME280;48237;50.140;8.486;2023-04-05T12:42:48;100061.59;;;4.81;38.43
62248;BME280;48237;50.140;8.486;2023-04-05T12:45:15;100063.53;;;4.41;40.78
62248;BME280;48237;50.140;8.486;2023-04-05T12:47:50;100061.46;;;4.28;40.25
62248;BME280;48237;50.140;8.486;2023-04-05T12:50:19;100053.49;;;4.50;38.69
62248;BME280;48237;50.140;8.486;2023-04-05T12:52:52;100053.21;;;5.27;38.58
62248;BME280;48237;50.140;8.486;2023-04-05T12:55:19;100049.86;;;5.05;39.00
62248;BME280;48237;50.140;8.486;2023-04-05T12:57:49;100045.08;;;4.19;39.10
62248;BME280;48237;50.140;8.486;2023-04-05T13:00:18;100035.35;;;6.28;36.41
62248;BME280;48237;50.140;8.486;2023-04-05T13:02:48;100030.34;;;7.48;34.93
62248;BME280;48237;50.140;8.486;2023-04-05T13:05:15;100041.83;;;5.46;36.68
62248;BME280;48237;50.140;8.486;2023-04-05T13:07:41;100035.25;;;4.23;37.69